createdAt,value
2019-05-14T00:02:21.690Z,2.62
2019-05-14T00:04:56.451Z,4.20
2019-05-14T00:07:32.140Z,2.52
2019-05-14T00:10:08.052Z,2.62
2019-05-14T00:12:42.774Z,2.77
2019-05-14T00:15:17.622Z,2.52
2019-05-14T00:17:52.430Z,2.72
2019-05-14T00:20:27.089Z,4.42
2019-05-14T00:23:01.846Z,3.62
2019-05-14T00:25:36.567Z,4.35
2019-05-14T00:28:11.752Z,3.67
2019-05-14T00:30:46.545Z,2.52
2019-05-14T00:33:22.507Z,3.00
2019-05-14T00:35:57.344Z,3.62
2019-05-14T00:38:31.949Z,3.02
2019-05-14T00:41:06.732Z,1.82
2019-05-14T00:43:41.692Z,2.27
2019-05-14T00:46:16.590Z,3.90
2019-05-14T00:48:51.637Z,4.25
2019-05-14T00:51:26.527Z,2.33
2019-05-14T00:54:01.769Z,2.20
2019-05-14T00:56:37.262Z,2.85
2019-05-14T00:59:11.903Z,3.50
2019-05-14T01:01:46.615Z,2.05
2019-05-14T01:04:22.269Z,3.52
2019-05-14T01:06:57.151Z,2.80
2019-05-14T01:09:31.913Z,3.72
2019-05-14T01:12:06.694Z,2.50
2019-05-14T01:14:42.482Z,2.60
2019-05-14T01:17:17.561Z,2.87
2019-05-14T01:19:52.312Z,5.28
2019-05-14T01:22:27.096Z,2.55
2019-05-14T01:25:01.847Z,2.35
2019-05-14T01:27:36.631Z,2.70
2019-05-14T01:30:12.505Z,2.30
2019-05-14T01:32:47.367Z,2.30
2019-05-14T01:35:22.312Z,2.50
2019-05-14T01:37:57.095Z,2.67
2019-05-14T01:40:31.879Z,2.62
2019-05-14T01:43:06.622Z,2.50
2019-05-14T01:45:44.534Z,2.27
2019-05-14T01:48:19.238Z,2.70
2019-05-14T01:50:53.835Z,2.45
2019-05-14T01:53:28.486Z,2.50
2019-05-14T01:56:03.156Z,2.58
2019-05-14T01:58:37.939Z,3.22
2019-05-14T02:01:12.619Z,2.40
2019-05-14T02:03:47.223Z,2.30
2019-05-14T02:06:22.010Z,2.70
2019-05-14T02:08:56.790Z,2.67
2019-05-14T02:11:32.050Z,2.52
2019-05-14T02:14:07.065Z,2.27
2019-05-14T02:16:42.414Z,2.80
2019-05-14T02:19:17.198Z,2.10
2019-05-14T02:21:51.878Z,2.65
2019-05-14T02:24:26.594Z,5.05
2019-05-14T02:27:01.877Z,2.55
2019-05-14T02:29:36.882Z,2.12
2019-05-14T02:32:11.680Z,2.40
2019-05-14T02:34:49.720Z,2.40
2019-05-14T02:37:22.590Z,4.28
2019-05-14T02:39:59.711Z,2.22
2019-05-14T02:42:33.600Z,2.37
2019-05-14T02:45:09.070Z,5.72
2019-05-14T02:47:43.934Z,4.30
2019-05-14T02:50:20.278Z,2.67
2019-05-14T02:52:55.162Z,4.42
2019-05-14T02:55:30.174Z,5.05
2019-05-14T02:58:04.999Z,7.87
2019-05-14T03:00:40.795Z,4.85
2019-05-14T03:03:15.672Z,6.85
2019-05-14T03:05:50.458Z,4.97
2019-05-14T03:08:25.165Z,5.05
2019-05-14T03:11:00.501Z,4.83
2019-05-14T03:13:35.366Z,3.45
2019-05-14T03:16:24.915Z,3.05
2019-05-14T03:18:49.915Z,6.08
2019-05-14T03:21:22.924Z,2.70
2019-05-14T03:24:00.802Z,2.62
2019-05-14T03:26:34.092Z,2.75
2019-05-14T03:29:09.853Z,5.80
2019-05-14T03:31:45.038Z,2.90
2019-05-14T03:34:22.176Z,3.12
2019-05-14T03:36:56.164Z,2.25
2019-05-14T03:39:30.911Z,2.08
2019-05-14T03:42:05.708Z,2.12
2019-05-14T03:44:40.451Z,2.60
2019-05-14T03:47:15.383Z,2.20
2019-05-14T03:49:50.155Z,2.37
2019-05-14T03:52:25.004Z,1.87
2019-05-14T03:55:04.333Z,1.72
2019-05-14T03:57:39.581Z,1.90
2019-05-14T04:00:12.935Z,2.40
2019-05-14T04:02:49.027Z,1.90
2019-05-14T04:05:24.378Z,2.05
2019-05-14T04:08:00.087Z,1.70
2019-05-14T04:10:35.399Z,1.52
2019-05-14T04:13:11.785Z,2.15
2019-05-14T04:15:49.800Z,2.00
2019-05-14T04:18:28.932Z,2.22
2019-05-14T04:21:04.706Z,2.47
2019-05-14T04:23:42.444Z,1.98
2019-05-14T04:26:20.634Z,2.75
2019-05-14T04:29:00.230Z,1.70
2019-05-14T04:31:33.577Z,3.00
2019-05-14T04:34:12.596Z,1.62
2019-05-14T04:36:50.239Z,3.00
2019-05-14T04:39:24.153Z,1.77
2019-05-14T04:42:00.032Z,4.65
2019-05-14T04:44:34.878Z,3.05
2019-05-14T04:47:22.739Z,2.25
2019-05-14T04:49:46.209Z,2.83
2019-05-14T04:52:21.034Z,4.60
2019-05-14T04:54:59.200Z,3.80
2019-05-14T04:57:32.108Z,2.40
2019-05-14T05:00:06.978Z,4.28
2019-05-14T05:02:41.658Z,5.90
2019-05-14T05:05:19.380Z,4.15
2019-05-14T05:07:52.744Z,2.40
2019-05-14T05:10:29.762Z,4.70
2019-05-14T05:13:03.748Z,6.03
2019-05-14T05:15:39.559Z,4.15
2019-05-14T05:18:14.417Z,2.47
2019-05-14T05:20:50.502Z,6.12
2019-05-14T05:23:27.903Z,5.30
2019-05-14T05:26:01.868Z,6.28
2019-05-14T05:28:38.867Z,3.47
2019-05-14T05:31:12.911Z,2.70
2019-05-14T05:33:49.004Z,2.90
2019-05-14T05:36:23.994Z,2.37
2019-05-14T05:38:59.378Z,1.90
2019-05-14T05:41:34.368Z,2.50
2019-05-14T05:44:09.153Z,2.40
2019-05-14T05:46:43.979Z,3.60
2019-05-14T05:49:18.797Z,2.72
2019-05-14T05:51:54.127Z,2.58
2019-05-14T05:54:29.358Z,2.80
2019-05-14T05:57:04.305Z,2.35
2019-05-14T05:59:39.462Z,2.25
2019-05-14T06:02:14.660Z,2.05
2019-05-14T06:04:50.377Z,2.95
2019-05-14T06:07:25.110Z,2.87
2019-05-14T06:09:59.795Z,4.25
2019-05-14T06:12:34.539Z,2.80
2019-05-14T06:15:09.887Z,1.95
2019-05-14T06:17:44.675Z,2.00
2019-05-14T06:20:19.428Z,3.47
2019-05-14T06:22:54.313Z,1.60
2019-05-14T06:25:31.224Z,1.85
2019-05-14T06:28:05.503Z,1.52
2019-05-14T06:30:41.169Z,3.45
2019-05-14T06:33:15.874Z,2.85
2019-05-14T06:35:50.731Z,6.97
2019-05-14T06:38:25.643Z,2.83
2019-05-14T06:41:00.703Z,3.50
2019-05-14T06:43:35.411Z,4.55
2019-05-14T06:46:10.028Z,4.12
2019-05-14T06:48:44.676Z,5.05
2019-05-14T06:51:20.404Z,2.12
2019-05-14T06:53:55.021Z,3.55
2019-05-14T06:56:29.765Z,3.75
2019-05-14T06:59:04.544Z,3.55
2019-05-14T07:01:39.236Z,1.70
2019-05-14T07:04:13.948Z,6.53
2019-05-14T07:06:48.706Z,2.40
2019-05-14T07:09:23.523Z,2.20
2019-05-14T07:11:58.564Z,5.40
2019-05-14T07:14:33.463Z,2.85
2019-05-14T07:17:09.049Z,4.22
2019-05-14T07:19:44.126Z,4.80
2019-05-14T07:22:21.879Z,4.87
2019-05-14T07:24:58.649Z,2.58
2019-05-14T07:27:33.106Z,2.87
2019-05-14T07:30:09.812Z,1.30
2019-05-14T07:32:44.557Z,1.55
2019-05-14T07:35:19.616Z,1.50
2019-05-14T07:37:54.326Z,1.57
2019-05-14T07:40:29.142Z,1.45
2019-05-14T07:43:03.863Z,1.70
2019-05-14T07:45:38.752Z,1.98
2019-05-14T07:48:13.465Z,1.60
2019-05-14T07:50:51.899Z,1.60
2019-05-14T07:53:36.183Z,1.40
2019-05-14T07:56:00.858Z,2.12
2019-05-14T07:58:39.951Z,4.10
2019-05-14T08:01:20.678Z,16.17
2019-05-14T08:03:55.396Z,6.00
2019-05-14T08:06:30.087Z,6.75
2019-05-14T08:09:09.555Z,9.45
2019-05-14T08:11:44.354Z,6.10
2019-05-14T08:14:19.014Z,2.60
2019-05-14T08:16:53.879Z,1.80
2019-05-14T08:19:31.436Z,1.30
2019-05-14T08:22:05.149Z,1.10
2019-05-14T08:24:39.895Z,1.22
2019-05-14T08:27:14.678Z,1.10
2019-05-14T08:29:49.319Z,1.50
2019-05-14T08:32:23.990Z,1.35
2019-05-14T08:34:58.743Z,1.27
2019-05-14T08:37:33.526Z,0.70
2019-05-14T08:40:11.469Z,1.00
2019-05-14T08:42:49.039Z,1.45
2019-05-14T08:45:24.019Z,1.30
2019-05-14T08:47:58.807Z,1.02
2019-05-14T08:50:33.554Z,1.20
2019-05-14T08:53:09.964Z,1.65
2019-05-14T08:55:44.548Z,0.93
2019-05-14T08:58:20.367Z,2.10
2019-05-14T09:00:55.396Z,1.65
2019-05-14T09:03:30.177Z,1.37
2019-05-14T09:06:04.866Z,2.08
2019-05-14T09:08:39.651Z,1.52
2019-05-14T09:11:14.423Z,1.62
2019-05-14T09:13:49.290Z,3.70
2019-05-14T09:16:38.354Z,3.20
2019-05-14T09:19:00.419Z,2.95
2019-05-14T09:21:35.172Z,3.47
2019-05-14T09:24:09.959Z,1.40
2019-05-14T09:26:44.754Z,3.50
2019-05-14T09:29:25.923Z,3.77
2019-05-14T09:31:55.846Z,5.15
2019-05-14T09:34:30.722Z,2.25
2019-05-14T09:37:05.336Z,1.10
2019-05-14T09:39:44.560Z,2.33
2019-05-14T09:42:19.761Z,8.43
2019-05-14T09:44:54.621Z,4.53
2019-05-14T09:47:29.246Z,3.58
2019-05-14T09:50:16.323Z,2.05
2019-05-14T09:52:42.218Z,1.27
2019-05-14T09:55:18.164Z,3.37
2019-05-14T09:57:53.006Z,1.77
2019-05-14T10:00:27.967Z,1.00
2019-05-14T10:03:02.708Z,2.50
2019-05-14T10:05:37.479Z,2.00
2019-05-14T10:08:12.167Z,1.92
2019-05-14T10:10:48.842Z,1.60
2019-05-14T10:13:23.321Z,1.00
2019-05-14T10:15:58.894Z,0.80
2019-05-14T10:18:33.854Z,2.58
2019-05-14T10:21:08.817Z,1.30
2019-05-14T10:23:43.610Z,1.10
2019-05-14T10:26:18.779Z,1.05
2019-05-14T10:28:53.633Z,1.72
2019-05-14T10:31:28.963Z,1.45
2019-05-14T10:34:04.067Z,1.52
2019-05-14T10:36:38.854Z,1.62
2019-05-14T10:39:13.542Z,2.92
2019-05-14T10:41:48.333Z,4.30
2019-05-14T10:44:23.099Z,2.85
2019-05-14T10:46:58.362Z,2.20
2019-05-14T10:49:33.167Z,2.75
2019-05-14T10:52:08.403Z,2.72
2019-05-14T10:54:55.017Z,2.05
2019-05-14T10:57:19.524Z,2.37
2019-05-14T10:59:55.950Z,3.87
2019-05-14T11:02:30.745Z,3.80
2019-05-14T11:05:06.493Z,3.30
2019-05-14T11:07:41.895Z,2.85
2019-05-14T11:10:19.358Z,2.40
2019-05-14T11:12:55.012Z,3.65
2019-05-14T11:15:29.600Z,3.85
2019-05-14T11:18:04.346Z,3.62
2019-05-14T11:20:42.062Z,3.25
2019-05-14T11:23:15.425Z,3.20
2019-05-14T11:25:50.070Z,3.10
2019-05-14T11:28:24.723Z,2.55
2019-05-14T11:30:59.414Z,1.40
2019-05-14T11:33:34.197Z,2.20
2019-05-14T11:36:09.913Z,1.40
2019-05-14T11:38:44.761Z,1.95
2019-05-14T11:41:39.039Z,1.60
2019-05-14T11:44:16.267Z,1.62
2019-05-14T11:46:57.373Z,1.60
2019-05-14T11:49:27.362Z,2.17
2019-05-14T11:52:07.712Z,2.62
2019-05-14T11:54:41.047Z,2.30
2019-05-14T11:57:14.914Z,1.42
2019-05-14T11:59:49.631Z,2.67
2019-05-14T12:02:24.278Z,4.72
2019-05-14T12:04:59.019Z,3.52
2019-05-14T12:07:33.770Z,1.55
2019-05-14T12:10:09.155Z,3.25
2019-05-14T12:12:44.129Z,1.40
2019-05-14T12:15:18.940Z,12.10
2019-05-14T12:17:53.547Z,2.17
2019-05-14T12:20:29.662Z,2.37
2019-05-14T12:23:04.693Z,1.15
2019-05-14T12:25:39.465Z,1.55
2019-05-14T12:28:14.219Z,1.87
2019-05-14T12:30:49.179Z,2.98
2019-05-14T12:33:23.873Z,1.95
2019-05-14T12:36:00.624Z,2.95
2019-05-14T12:38:34.953Z,1.62
2019-05-14T12:41:09.673Z,1.45
2019-05-14T12:43:44.346Z,3.02
2019-05-14T12:46:20.102Z,1.82
2019-05-14T12:48:55.090Z,1.95
2019-05-14T12:51:29.873Z,1.72
2019-05-14T12:54:04.640Z,1.37
2019-05-14T12:56:39.338Z,2.58
2019-05-14T12:59:13.943Z,1.25
2019-05-14T13:01:49.349Z,1.45
2019-05-14T13:04:24.031Z,2.12
2019-05-14T13:06:59.761Z,1.50
2019-05-14T13:09:34.769Z,1.40
2019-05-14T13:12:11.235Z,2.40
2019-05-14T13:14:45.885Z,2.27
2019-05-14T13:17:22.235Z,3.37
2019-05-14T13:19:56.984Z,5.40
2019-05-14T13:22:44.748Z,4.28
2019-05-14T13:25:09.871Z,4.15
2019-05-14T13:27:44.719Z,3.00
2019-05-14T13:30:19.526Z,2.95
2019-05-14T13:32:54.284Z,6.83
2019-05-14T13:35:29.331Z,3.58
2019-05-14T13:38:04.151Z,3.62
2019-05-14T13:40:39.285Z,2.83
2019-05-14T13:43:14.609Z,2.67
2019-05-14T13:45:49.603Z,1.50
2019-05-14T13:48:24.442Z,1.50
2019-05-14T13:50:59.118Z,1.70
2019-05-14T13:53:33.906Z,1.50
2019-05-14T13:56:09.222Z,3.65
2019-05-14T13:58:44.199Z,2.92
2019-05-14T14:01:19.507Z,2.12
2019-05-14T14:04:06.718Z,1.92
2019-05-14T14:06:30.829Z,1.62
2019-05-14T14:09:11.989Z,2.08
2019-05-14T14:11:42.815Z,2.10
2019-05-14T14:14:20.132Z,4.17
2019-05-14T14:16:54.252Z,3.37
2019-05-14T14:19:29.039Z,2.00
2019-05-14T14:22:03.860Z,2.58
2019-05-14T14:24:38.807Z,2.50
2019-05-14T14:27:13.705Z,1.87
2019-05-14T14:29:49.302Z,2.98
2019-05-14T14:32:24.305Z,3.17
2019-05-14T14:34:59.178Z,2.83
2019-05-14T14:37:33.896Z,2.92
2019-05-14T14:40:10.619Z,2.90
2019-05-14T14:42:45.446Z,3.17
2019-05-14T14:45:21.847Z,5.47
2019-05-14T14:47:57.486Z,2.42
2019-05-14T14:50:32.294Z,2.72
2019-05-14T14:53:09.238Z,1.67
2019-05-14T14:55:43.468Z,2.98
2019-05-14T14:58:19.969Z,1.47
2019-05-14T15:00:54.536Z,2.35
2019-05-14T15:03:29.695Z,1.45
2019-05-14T15:06:04.598Z,1.30
2019-05-14T15:08:39.284Z,2.10
2019-05-14T15:11:13.992Z,1.37
2019-05-14T15:13:51.587Z,4.42
2019-05-14T15:16:29.022Z,1.85
2019-05-14T15:19:02.529Z,1.72
2019-05-14T15:21:37.352Z,1.57
2019-05-14T15:24:15.590Z,2.35
2019-05-14T15:26:48.702Z,1.90
2019-05-14T15:29:23.432Z,2.60
2019-05-14T15:31:59.232Z,3.65
2019-05-14T15:34:34.137Z,1.42
2019-05-14T15:37:09.138Z,1.50
2019-05-14T15:39:43.908Z,3.83
2019-05-14T15:42:19.296Z,2.20
2019-05-14T15:44:56.099Z,2.65
2019-05-14T15:47:30.554Z,1.57
2019-05-14T15:50:05.427Z,2.58
2019-05-14T15:52:40.179Z,3.00
2019-05-14T15:55:18.301Z,3.20
2019-05-14T15:57:52.920Z,3.58
2019-05-14T16:00:29.190Z,4.10
2019-05-14T16:03:04.072Z,3.12
2019-05-14T16:05:39.511Z,2.62
2019-05-14T16:08:14.530Z,3.08
2019-05-14T16:10:50.125Z,5.13
2019-05-14T16:13:24.911Z,3.42
2019-05-14T16:15:59.651Z,2.70
2019-05-14T16:18:34.307Z,2.17
2019-05-14T16:21:10.656Z,1.92
2019-05-14T16:23:45.463Z,3.72
2019-05-14T16:26:20.188Z,4.33
2019-05-14T16:28:54.978Z,2.40
2019-05-14T16:31:31.626Z,3.08
2019-05-14T16:34:09.676Z,2.52
2019-05-14T16:36:42.924Z,3.02
2019-05-14T16:39:19.244Z,3.10
2019-05-14T16:41:54.091Z,3.17
2019-05-14T16:44:28.818Z,3.40
2019-05-14T16:47:03.529Z,3.62
2019-05-14T16:49:38.307Z,3.50
2019-05-14T16:52:17.952Z,4.60
2019-05-14T16:55:08.873Z,3.98
2019-05-14T16:57:29.300Z,4.22
2019-05-14T17:00:09.428Z,5.37
2019-05-14T17:02:43.491Z,9.10
2019-05-14T17:05:18.276Z,5.67
2019-05-14T17:07:52.961Z,5.95
2019-05-14T17:10:28.570Z,4.92
2019-05-14T17:13:03.629Z,3.87
2019-05-14T17:15:43.872Z,4.12
2019-05-14T17:18:19.106Z,7.85
2019-05-14T17:20:52.885Z,6.03
2019-05-14T17:23:29.201Z,6.33
2019-05-14T17:26:03.976Z,6.85
2019-05-14T17:28:40.518Z,5.17
2019-05-14T17:31:15.140Z,5.87
2019-05-14T17:33:49.823Z,7.00
2019-05-14T17:36:24.552Z,8.98
2019-05-14T17:38:59.301Z,6.58
2019-05-14T17:41:34.077Z,6.10
2019-05-14T17:44:09.046Z,5.60
2019-05-14T17:46:43.914Z,5.62
2019-05-14T17:49:19.129Z,6.10
2019-05-14T17:51:54.118Z,6.12
2019-05-14T17:54:28.881Z,6.47
2019-05-14T17:57:03.709Z,7.35
2019-05-14T17:59:39.239Z,6.62
2019-05-14T18:02:14.274Z,5.92
2019-05-14T18:04:48.980Z,5.65
2019-05-14T18:07:23.630Z,5.15
2019-05-14T18:09:58.839Z,4.75
2019-05-14T18:12:33.814Z,5.15
2019-05-14T18:15:09.463Z,5.33
2019-05-14T18:17:44.252Z,5.55
2019-05-14T18:20:22.335Z,6.22
2019-05-14T18:22:58.288Z,7.92
2019-05-14T18:25:32.827Z,8.88
2019-05-14T18:28:09.310Z,8.45
2019-05-14T18:30:43.948Z,8.98
2019-05-14T18:33:18.873Z,8.58
2019-05-14T18:35:53.693Z,12.47
2019-05-14T18:38:29.038Z,11.15
2019-05-14T18:41:03.973Z,13.18
2019-05-14T18:43:38.768Z,12.88
2019-05-14T18:46:13.786Z,10.28
2019-05-14T18:48:49.214Z,6.55
2019-05-14T18:51:25.689Z,5.67
2019-05-14T18:54:02.028Z,5.75
2019-05-14T18:56:38.442Z,5.03
2019-05-14T18:59:13.019Z,4.53
2019-05-14T19:01:48.886Z,5.30
2019-05-14T19:04:24.133Z,5.08
2019-05-14T19:06:59.123Z,5.42
2019-05-14T19:09:33.990Z,5.47
2019-05-14T19:12:08.749Z,5.95
2019-05-14T19:14:43.531Z,5.30
2019-05-14T19:17:18.661Z,5.10
2019-05-14T19:19:53.659Z,8.55
2019-05-14T19:22:28.851Z,5.78
2019-05-14T19:25:08.216Z,6.65
2019-05-14T19:27:43.066Z,6.58
2019-05-14T19:30:19.096Z,6.50
2019-05-14T19:32:54.016Z,6.00
2019-05-14T19:35:28.849Z,6.35
2019-05-14T19:38:03.699Z,7.22
2019-05-14T19:40:39.133Z,6.37
2019-05-14T19:43:14.030Z,6.97
2019-05-14T19:45:48.776Z,4.90
2019-05-14T19:48:23.441Z,5.47
2019-05-14T19:50:58.508Z,5.42
2019-05-14T19:53:33.271Z,4.70
2019-05-14T19:56:08.055Z,4.35
2019-05-14T19:58:42.801Z,4.00
2019-05-14T20:01:19.327Z,4.47
2019-05-14T20:03:54.132Z,4.53
2019-05-14T20:06:29.621Z,7.85
2019-05-14T20:09:09.242Z,5.30
2019-05-14T20:11:43.080Z,7.37
2019-05-14T20:14:17.830Z,6.28
2019-05-14T20:16:52.465Z,3.12
2019-05-14T20:19:28.660Z,3.98
2019-05-14T20:22:03.577Z,3.10
2019-05-14T20:24:41.446Z,5.33
2019-05-14T20:27:14.618Z,5.70
2019-05-14T20:29:49.307Z,10.82
2019-05-14T20:32:24.045Z,8.23
2019-05-14T20:34:58.789Z,5.15
2019-05-14T20:37:33.571Z,3.58
2019-05-14T20:40:09.058Z,6.10
2019-05-14T20:42:43.731Z,7.33
2019-05-14T20:45:19.190Z,8.40
2019-05-14T20:47:53.992Z,6.50
2019-05-14T20:50:29.097Z,6.08
2019-05-14T20:53:04.054Z,4.35
2019-05-14T20:55:39.009Z,8.33
2019-05-14T20:58:13.881Z,6.83
2019-05-14T21:00:48.808Z,7.28
2019-05-14T21:03:23.595Z,7.30
2019-05-14T21:05:58.399Z,6.35
2019-05-14T21:08:33.199Z,6.30
2019-05-14T21:11:08.365Z,6.40
2019-05-14T21:13:43.195Z,7.10
2019-05-14T21:16:18.245Z,6.03
2019-05-14T21:18:53.164Z,6.10
2019-05-14T21:21:28.340Z,6.55
2019-05-14T21:24:03.153Z,6.60
2019-05-14T21:26:40.143Z,7.03
2019-05-14T21:29:14.278Z,6.80
2019-05-14T21:31:48.952Z,6.45
2019-05-14T21:34:23.629Z,7.15
2019-05-14T21:36:58.554Z,7.53
2019-05-14T21:39:33.460Z,7.28
2019-05-14T21:42:10.825Z,6.90
2019-05-14T21:44:44.624Z,8.25
2019-05-14T21:47:19.295Z,7.05
2019-05-14T21:49:54.079Z,6.15
2019-05-14T21:52:29.011Z,7.95
2019-05-14T21:55:05.015Z,6.50
2019-05-14T21:57:53.455Z,6.42
2019-05-14T22:00:29.289Z,6.17
2019-05-14T22:03:02.886Z,5.83
2019-05-14T22:05:39.277Z,4.05
2019-05-14T22:08:14.044Z,8.03
2019-05-14T22:10:48.932Z,7.05
2019-05-14T22:13:23.611Z,7.03
2019-05-14T22:15:58.956Z,5.67
2019-05-14T22:18:33.846Z,6.25
2019-05-14T22:21:08.962Z,6.08
2019-05-14T22:23:43.783Z,5.62
2019-05-14T22:26:18.771Z,5.50
2019-05-14T22:28:53.583Z,5.35
2019-05-14T22:31:29.009Z,5.72
2019-05-14T22:34:03.755Z,6.03
2019-05-14T22:36:38.862Z,5.50
2019-05-14T22:39:13.682Z,5.20
2019-05-14T22:41:48.391Z,5.65
2019-05-14T22:44:22.999Z,5.15
2019-05-14T22:46:58.780Z,5.33
2019-05-14T22:49:33.621Z,5.72
2019-05-14T22:52:08.464Z,6.40
2019-05-14T22:54:43.122Z,7.53
2019-05-14T22:57:17.913Z,7.15
2019-05-14T22:59:52.666Z,6.53
2019-05-14T23:02:28.429Z,6.75
2019-05-14T23:05:03.435Z,7.22
2019-05-14T23:07:38.639Z,7.47
2019-05-14T23:10:13.859Z,7.25
2019-05-14T23:12:48.944Z,7.70
2019-05-14T23:15:23.798Z,7.42
2019-05-14T23:17:58.974Z,7.42
2019-05-14T23:20:33.908Z,7.87
2019-05-14T23:23:09.251Z,8.28
2019-05-14T23:25:44.195Z,6.95
2019-05-14T23:28:19.338Z,7.08
2019-05-14T23:30:54.082Z,7.78
2019-05-14T23:33:48.952Z,6.53
2019-05-14T23:36:24.218Z,6.50
2019-05-14T23:38:59.190Z,6.08
2019-05-14T23:41:34.075Z,6.15
2019-05-14T23:44:08.798Z,6.28
2019-05-14T23:46:43.498Z,6.35
2019-05-14T23:49:18.463Z,6.00
2019-05-14T23:51:53.191Z,6.00
2019-05-14T23:54:29.379Z,5.87
2019-05-14T23:57:04.054Z,5.70
2019-05-14T23:59:39.633Z,6.50
